0.230 kWh

EHAM AMSTERDAM/SCHIPHOL NLD -3 m.
METAR EHAM 200825Z VRB02KT CAVOK 11/10 Q1008 NOSIG

EHAM AMSTERDAM/SCHIPHOL NLD -3 m.
TAF EHAM 200439Z 2006/2112 17005KT 9999 SCT025
PROB40 TEMPO 2006/2008 4000 BR
BECMG 2013/2016 05007KT
BECMG 2021/2024 04012KT 6000 -RADZ BKN012
BECMG 2101/2104 3500 BR -DZ BKN006
PROB30 2104/2108 2000 BKN004
BECMG 2105/2108 18012KT
BECMG 2108/2111 7000 NSW BKN014